createdAt,value
2022-12-25T00:01:35.712Z,4.33
2022-12-25T00:04:08.186Z,4.33
2022-12-25T00:06:41.656Z,4.40
2022-12-25T00:09:14.678Z,4.36
2022-12-25T00:11:46.974Z,4.34
2022-12-25T00:14:19.343Z,4.38
2022-12-25T00:16:51.846Z,4.42
2022-12-25T00:19:24.163Z,4.46
2022-12-25T00:21:56.506Z,4.44
2022-12-25T00:24:29.598Z,4.25
2022-12-25T00:27:01.901Z,4.07
2022-12-25T00:29:34.560Z,4.12
2022-12-25T00:32:06.969Z,4.17
2022-12-25T00:34:39.344Z,4.15
2022-12-25T00:37:11.655Z,4.02
2022-12-25T00:39:44.677Z,4.00
2022-12-25T00:42:19.934Z,4.02
2022-12-25T00:44:52.349Z,4.02
2022-12-25T00:47:24.673Z,3.95
2022-12-25T00:49:57.046Z,3.93
2022-12-25T00:52:29.381Z,3.92
2022-12-25T00:55:02.582Z,3.78
2022-12-25T00:57:35.084Z,3.79
2022-12-25T01:00:08.668Z,3.74
2022-12-25T01:02:41.109Z,3.47
2022-12-25T01:05:13.546Z,3.46
2022-12-25T01:07:45.881Z,3.52
2022-12-25T01:10:24.430Z,3.44
2022-12-25T01:12:56.877Z,3.34
2022-12-25T01:15:29.230Z,3.36
2022-12-25T01:18:07.626Z,3.41
2022-12-25T01:20:40.378Z,3.40
2022-12-25T01:23:13.031Z,3.38
2022-12-25T01:25:46.050Z,3.46
2022-12-25T01:28:18.401Z,3.32
2022-12-25T01:30:50.805Z,3.41
2022-12-25T01:33:23.179Z,3.50
2022-12-25T01:35:57.103Z,3.52
2022-12-25T01:38:29.461Z,3.38
2022-12-25T01:41:02.695Z,3.48
2022-12-25T01:43:35.040Z,3.60
2022-12-25T01:46:07.689Z,3.75
2022-12-25T01:48:40.110Z,3.73
2022-12-25T01:51:21.971Z,3.81
2022-12-25T01:53:57.559Z,3.85
2022-12-25T01:56:31.950Z,3.96
2022-12-25T01:59:05.618Z,4.06
2022-12-25T02:01:38.201Z,4.13
2022-12-25T02:04:19.572Z,4.23
2022-12-25T02:06:52.112Z,4.26
2022-12-25T02:09:24.433Z,4.23
2022-12-25T02:11:57.654Z,4.33
2022-12-25T02:14:34.413Z,4.34
2022-12-25T02:17:12.798Z,4.29
2022-12-25T02:20:08.690Z,4.33
2022-12-25T02:22:56.330Z,4.34
2022-12-25T02:25:39.413Z,4.34
2022-12-25T02:28:20.208Z,4.27
2022-12-25T02:30:56.980Z,4.30
2022-12-25T02:33:53.395Z,4.34
2022-12-25T02:36:33.044Z,4.30
2022-12-25T02:39:31.531Z,4.09
2022-12-25T02:42:08.542Z,4.08
2022-12-25T02:45:02.885Z,4.08
2022-12-25T02:47:55.109Z,4.09
2022-12-25T02:50:46.039Z,4.03
2022-12-25T02:53:36.555Z,3.94
2022-12-25T02:56:28.307Z,3.82
2022-12-25T02:59:19.813Z,3.83
2022-12-25T03:02:12.193Z,3.81
2022-12-25T03:05:02.833Z,3.69
2022-12-25T03:07:39.305Z,3.69
2022-12-25T03:10:32.960Z,3.59
2022-12-25T03:13:12.464Z,3.16
2022-12-25T03:16:03.843Z,3.34
2022-12-25T03:18:36.964Z,3.17
2022-12-25T03:21:28.022Z,3.15
2022-12-25T03:24:15.952Z,3.18
2022-12-25T03:26:54.559Z,2.92
2022-12-25T03:29:48.851Z,2.88
2022-12-25T03:32:33.552Z,2.88
2022-12-25T03:35:23.205Z,2.89
2022-12-25T03:38:21.139Z,2.87
2022-12-25T03:41:19.928Z,2.71
2022-12-25T03:44:16.979Z,2.66
2022-12-25T03:47:17.781Z,2.65
2022-12-25T03:50:13.965Z,2.66
2022-12-25T03:53:06.860Z,2.67
2022-12-25T03:55:59.080Z,2.66
2022-12-25T03:58:49.519Z,2.58
2022-12-25T04:01:40.132Z,2.54
2022-12-25T04:04:30.464Z,2.49
2022-12-25T04:07:21.096Z,2.53
2022-12-25T04:10:12.482Z,2.47
2022-12-25T04:13:03.164Z,2.46
2022-12-25T04:15:53.756Z,2.45
2022-12-25T04:18:44.454Z,2.49
2022-12-25T04:21:35.279Z,2.43
2022-12-25T04:24:27.413Z,2.41
2022-12-25T04:27:18.996Z,2.37
2022-12-25T04:30:09.433Z,2.34
2022-12-25T04:33:00.092Z,2.36
2022-12-25T04:35:51.082Z,2.23
2022-12-25T04:38:23.904Z,2.23
2022-12-25T04:40:56.248Z,2.30
2022-12-25T04:43:29.497Z,2.32
2022-12-25T04:46:02.559Z,2.17
2022-12-25T04:48:36.197Z,2.05
2022-12-25T04:51:16.778Z,2.10
2022-12-25T04:53:50.103Z,2.14
2022-12-25T04:56:22.896Z,2.17
2022-12-25T04:58:55.941Z,2.11
2022-12-25T05:01:28.390Z,1.92
2022-12-25T05:04:00.884Z,1.94
2022-12-25T05:06:33.297Z,1.92
2022-12-25T05:09:05.804Z,1.94
2022-12-25T05:11:39.196Z,1.95
2022-12-25T05:14:12.196Z,1.96
2022-12-25T05:16:44.865Z,1.74
2022-12-25T05:19:17.222Z,1.84
2022-12-25T05:21:49.765Z,1.86
2022-12-25T05:24:26.085Z,1.90
2022-12-25T05:26:58.494Z,1.96
2022-12-25T05:29:31.527Z,1.95
2022-12-25T05:32:04.303Z,1.90
2022-12-25T05:34:36.655Z,1.93
2022-12-25T05:37:09.023Z,1.95
2022-12-25T05:39:41.687Z,1.86
2022-12-25T05:42:14.081Z,1.76
2022-12-25T05:44:47.080Z,1.78
2022-12-25T05:47:19.462Z,1.74
2022-12-25T05:49:51.807Z,1.70
2022-12-25T05:52:24.216Z,1.68
2022-12-25T05:54:56.511Z,1.70
2022-12-25T05:57:29.680Z,1.58
2022-12-25T06:00:03.348Z,1.65
2022-12-25T06:02:44.892Z,1.68
2022-12-25T06:05:17.445Z,1.60
2022-12-25T06:07:49.901Z,1.69
2022-12-25T06:10:22.657Z,1.64
2022-12-25T06:12:55.086Z,1.68
2022-12-25T06:15:28.041Z,1.66
2022-12-25T06:18:00.835Z,1.61
2022-12-25T06:20:33.487Z,1.70
2022-12-25T06:23:06.280Z,1.60
2022-12-25T06:25:39.259Z,1.77
2022-12-25T06:28:11.633Z,1.79
2022-12-25T06:30:44.652Z,1.65
2022-12-25T06:33:17.008Z,1.75
2022-12-25T06:35:49.337Z,1.73
2022-12-25T06:38:21.687Z,1.79
2022-12-25T06:40:53.998Z,1.76
2022-12-25T06:43:26.376Z,1.82
2022-12-25T06:46:03.228Z,1.77
2022-12-25T06:48:36.993Z,1.85
2022-12-25T06:51:09.297Z,1.86
2022-12-25T06:53:41.845Z,1.83
2022-12-25T06:56:15.960Z,1.91
2022-12-25T06:58:50.196Z,1.93
2022-12-25T07:01:26.516Z,1.92
2022-12-25T07:04:01.633Z,1.93
2022-12-25T07:06:34.365Z,2.02
2022-12-25T07:09:06.755Z,2.05
2022-12-25T07:11:39.098Z,1.86
2022-12-25T07:14:21.950Z,1.95
2022-12-25T07:16:57.041Z,2.01
2022-12-25T07:19:29.480Z,2.04
2022-12-25T07:22:01.816Z,2.00
2022-12-25T07:24:34.363Z,2.08
2022-12-25T07:27:07.549Z,2.05
2022-12-25T07:29:40.030Z,2.10
2022-12-25T07:32:13.109Z,2.07
2022-12-25T07:34:45.520Z,2.15
2022-12-25T07:37:17.881Z,2.30
2022-12-25T07:39:50.289Z,2.41
2022-12-25T07:42:31.065Z,2.41
2022-12-25T07:45:05.019Z,2.58
2022-12-25T07:47:38.006Z,2.56
2022-12-25T07:50:10.859Z,2.59
2022-12-25T07:52:43.926Z,2.78
2022-12-25T07:55:16.459Z,2.85
2022-12-25T07:57:48.885Z,2.82
2022-12-25T08:00:21.736Z,2.85
2022-12-25T08:02:54.915Z,2.89
2022-12-25T08:05:27.467Z,2.98
2022-12-25T08:07:59.778Z,3.04
2022-12-25T08:10:32.125Z,3.06
2022-12-25T08:13:09.052Z,3.13
2022-12-25T08:15:44.804Z,3.28
2022-12-25T08:18:17.779Z,3.55
2022-12-25T08:20:50.212Z,3.82
2022-12-25T08:23:22.593Z,4.04
2022-12-25T08:26:04.426Z,4.26
2022-12-25T08:28:37.676Z,4.51
2022-12-25T08:31:13.625Z,4.70
2022-12-25T08:33:47.119Z,4.92
2022-12-25T08:36:20.026Z,5.11
2022-12-25T08:38:56.964Z,5.34
2022-12-25T08:41:29.667Z,5.56
2022-12-25T08:44:02.231Z,5.71
2022-12-25T08:46:35.982Z,5.89
2022-12-25T08:49:09.048Z,6.09
2022-12-25T08:51:43.539Z,6.23
2022-12-25T08:54:15.849Z,6.30
2022-12-25T08:56:48.171Z,6.41
2022-12-25T08:59:20.613Z,6.61
2022-12-25T09:01:53.126Z,6.71
2022-12-25T09:04:26.390Z,6.88
2022-12-25T09:06:58.816Z,7.01
2022-12-25T09:09:31.118Z,7.17
2022-12-25T09:12:03.602Z,7.32
2022-12-25T09:14:36.199Z,7.38
2022-12-25T09:17:09.018Z,7.42
2022-12-25T09:19:41.963Z,7.63
2022-12-25T09:22:14.347Z,7.74
2022-12-25T09:24:46.627Z,7.90
2022-12-25T09:27:19.287Z,8.10
2022-12-25T09:29:51.560Z,8.22
2022-12-25T09:32:23.941Z,8.32
2022-12-25T09:34:57.052Z,8.52
2022-12-25T09:37:29.419Z,8.50
2022-12-25T09:40:01.963Z,8.61
2022-12-25T09:42:34.504Z,8.66
2022-12-25T09:45:12.760Z,8.73
2022-12-25T09:47:48.715Z,8.86
2022-12-25T09:50:27.953Z,9.08
2022-12-25T09:53:05.251Z,9.11
2022-12-25T09:55:45.179Z,9.16
2022-12-25T09:58:17.573Z,9.34
2022-12-25T10:01:01.755Z,9.40
2022-12-25T10:03:54.798Z,9.56
2022-12-25T10:06:36.698Z,9.61
2022-12-25T10:09:23.769Z,9.76
2022-12-25T10:12:14.052Z,9.60
2022-12-25T10:15:01.374Z,9.63
2022-12-25T10:17:44.517Z,9.86
2022-12-25T10:20:33.891Z,9.92
2022-12-25T10:23:13.692Z,10.03
2022-12-25T10:25:47.432Z,9.80
2022-12-25T10:28:26.271Z,10.12
2022-12-25T10:31:05.630Z,10.13
2022-12-25T10:33:37.950Z,10.34
2022-12-25T10:36:10.431Z,10.43
2022-12-25T10:38:43.602Z,10.38
2022-12-25T10:41:29.079Z,10.34
2022-12-25T10:44:12.699Z,10.56
2022-12-25T10:46:48.688Z,10.74
2022-12-25T10:49:24.479Z,10.58
2022-12-25T10:51:56.943Z,10.71
2022-12-25T10:54:31.662Z,10.44
2022-12-25T10:57:15.496Z,10.40
2022-12-25T10:59:50.164Z,10.28
2022-12-25T11:02:26.561Z,10.32
2022-12-25T11:05:02.314Z,10.30
2022-12-25T11:07:45.853Z,10.22
2022-12-25T11:10:22.647Z,10.46
2022-12-25T11:12:55.640Z,10.36
2022-12-25T11:15:35.436Z,10.30
2022-12-25T11:18:19.385Z,10.32
2022-12-25T11:20:53.898Z,10.63
2022-12-25T11:23:27.984Z,10.83
2022-12-25T11:26:03.900Z,11.03
2022-12-25T11:28:40.149Z,11.10
2022-12-25T11:31:14.597Z,11.27
2022-12-25T11:33:55.153Z,11.23
2022-12-25T11:36:32.411Z,11.38
2022-12-25T11:39:17.893Z,11.39
2022-12-25T11:41:55.490Z,11.32
2022-12-25T11:44:38.749Z,11.14
2022-12-25T11:47:18.658Z,11.17
2022-12-25T11:50:00.455Z,10.83
2022-12-25T11:52:36.549Z,10.82
2022-12-25T11:55:18.031Z,10.93
2022-12-25T11:57:55.698Z,10.37
2022-12-25T12:00:30.473Z,10.29
2022-12-25T12:03:12.414Z,10.11
2022-12-25T12:05:48.446Z,10.06
2022-12-25T12:08:20.754Z,10.01
2022-12-25T12:11:15.047Z,9.76
2022-12-25T12:14:00.380Z,9.70
2022-12-25T12:16:34.737Z,9.71
2022-12-25T12:19:12.260Z,9.75
2022-12-25T12:21:49.091Z,9.59
2022-12-25T12:24:23.754Z,9.65
2022-12-25T12:27:02.631Z,9.53
2022-12-25T12:29:40.252Z,9.72
2022-12-25T12:32:29.393Z,9.80
2022-12-25T12:35:09.059Z,9.84
2022-12-25T12:37:43.045Z,9.87
2022-12-25T12:40:29.833Z,9.75
2022-12-25T12:43:02.409Z,9.96
2022-12-25T12:45:37.511Z,10.03
2022-12-25T12:48:24.650Z,10.12
2022-12-25T12:51:05.636Z,10.13
2022-12-25T12:53:38.896Z,10.29
2022-12-25T12:56:16.921Z,10.34
2022-12-25T12:58:50.332Z,10.33
2022-12-25T13:01:44.635Z,10.23
2022-12-25T13:04:46.340Z,10.51
2022-12-25T13:07:44.270Z,10.55
2022-12-25T13:10:24.602Z,10.68
2022-12-25T13:13:00.306Z,10.72
2022-12-25T13:15:34.578Z,10.73
2022-12-25T13:18:12.050Z,10.84
2022-12-25T13:20:50.934Z,10.73
2022-12-25T13:23:28.674Z,10.66
2022-12-25T13:26:03.249Z,10.47
2022-12-25T13:28:36.365Z,10.45
2022-12-25T13:31:15.334Z,10.58
2022-12-25T13:33:54.923Z,10.64
2022-12-25T13:36:29.855Z,10.43
2022-12-25T13:39:02.837Z,10.42
2022-12-25T13:41:59.833Z,10.43
2022-12-25T13:44:42.457Z,10.52
2022-12-25T13:47:20.931Z,10.54
2022-12-25T13:49:55.432Z,10.48
2022-12-25T13:52:32.986Z,10.46
2022-12-25T13:55:12.900Z,10.45
2022-12-25T13:57:50.841Z,10.55
2022-12-25T14:00:29.401Z,10.63
2022-12-25T14:03:03.990Z,10.77
2022-12-25T14:05:42.890Z,10.85
2022-12-25T14:08:21.570Z,10.92
2022-12-25T14:10:55.315Z,10.83
2022-12-25T14:13:30.138Z,10.90
2022-12-25T14:16:03.120Z,10.89
2022-12-25T14:18:35.704Z,10.90
2022-12-25T14:21:15.145Z,10.87
2022-12-25T14:23:49.811Z,10.82
2022-12-25T14:26:25.047Z,10.82
2022-12-25T14:29:10.141Z,10.77
2022-12-25T14:31:48.161Z,10.72
2022-12-25T14:34:23.182Z,10.69
2022-12-25T14:36:56.897Z,10.63
2022-12-25T14:39:34.819Z,10.44
2022-12-25T14:42:19.963Z,10.24
2022-12-25T14:45:02.478Z,10.17
2022-12-25T14:47:50.525Z,10.05
2022-12-25T14:50:28.589Z,9.98
2022-12-25T14:53:01.921Z,9.90
2022-12-25T14:55:34.215Z,9.78
2022-12-25T14:58:07.480Z,9.70
2022-12-25T15:00:40.260Z,9.49
2022-12-25T15:03:24.104Z,9.33
2022-12-25T15:06:00.949Z,9.22
2022-12-25T15:08:34.870Z,9.11
2022-12-25T15:11:08.607Z,8.95
2022-12-25T15:13:40.951Z,8.54
2022-12-25T15:16:16.596Z,8.30
2022-12-25T15:18:49.931Z,8.23
2022-12-25T15:21:26.135Z,8.16
2022-12-25T15:24:00.077Z,8.00
2022-12-25T15:26:32.822Z,7.91
2022-12-25T15:29:06.664Z,7.71
2022-12-25T15:31:39.875Z,7.56
2022-12-25T15:34:16.939Z,7.49
2022-12-25T15:36:51.517Z,7.44
2022-12-25T15:39:24.482Z,7.34
2022-12-25T15:42:11.687Z,7.25
2022-12-25T15:44:44.803Z,7.12
2022-12-25T15:47:19.302Z,7.17
2022-12-25T15:49:51.607Z,7.09
2022-12-25T15:52:24.059Z,7.05
2022-12-25T15:54:57.057Z,6.92
2022-12-25T15:57:30.013Z,6.81
2022-12-25T16:00:03.039Z,6.72
2022-12-25T16:02:44.540Z,6.67
2022-12-25T16:05:17.180Z,6.54
2022-12-25T16:07:49.551Z,6.43
2022-12-25T16:10:22.536Z,6.38
2022-12-25T16:12:54.919Z,6.31
2022-12-25T16:15:27.232Z,6.25
2022-12-25T16:17:59.636Z,6.22
2022-12-25T16:20:32.278Z,6.10
2022-12-25T16:23:04.674Z,5.95
2022-12-25T16:25:37.680Z,5.84
2022-12-25T16:28:10.209Z,5.81
2022-12-25T16:30:42.858Z,5.69
2022-12-25T16:33:15.377Z,5.59
2022-12-25T16:35:48.904Z,5.55
2022-12-25T16:38:21.377Z,5.47
2022-12-25T16:40:56.930Z,5.41
2022-12-25T16:43:29.430Z,5.37
2022-12-25T16:46:08.322Z,5.30
2022-12-25T16:48:41.092Z,5.26
2022-12-25T16:51:15.558Z,5.19
2022-12-25T16:53:48.283Z,5.18
2022-12-25T16:56:24.656Z,5.18
2022-12-25T16:58:57.986Z,5.14
2022-12-25T17:01:30.557Z,5.08
2022-12-25T17:04:03.366Z,5.03
2022-12-25T17:06:36.329Z,5.01
2022-12-25T17:09:09.139Z,4.91
2022-12-25T17:11:42.153Z,4.92
2022-12-25T17:14:14.957Z,4.85
2022-12-25T17:16:47.315Z,4.83
2022-12-25T17:19:21.526Z,4.74
2022-12-25T17:21:54.266Z,4.66
2022-12-25T17:24:26.954Z,4.58
2022-12-25T17:26:59.921Z,4.55
2022-12-25T17:29:32.717Z,4.54
2022-12-25T17:32:05.723Z,4.54
2022-12-25T17:34:38.243Z,4.51
2022-12-25T17:37:10.771Z,4.56
2022-12-25T17:39:43.173Z,4.49
2022-12-25T17:42:16.165Z,4.47
2022-12-25T17:44:48.588Z,4.43
2022-12-25T17:47:20.908Z,4.33
2022-12-25T17:49:53.327Z,4.28
2022-12-25T17:52:25.613Z,4.25
2022-12-25T17:54:58.117Z,4.17
2022-12-25T17:57:31.114Z,4.12
2022-12-25T18:00:04.916Z,4.06
2022-12-25T18:02:39.302Z,4.05
2022-12-25T18:05:11.767Z,3.94
2022-12-25T18:07:44.243Z,3.78
2022-12-25T18:10:16.947Z,3.68
2022-12-25T18:12:49.972Z,3.59
2022-12-25T18:15:22.733Z,3.62
2022-12-25T18:17:55.810Z,3.56
2022-12-25T18:20:32.959Z,3.59
2022-12-25T18:23:10.137Z,3.50
2022-12-25T18:25:42.833Z,3.51
2022-12-25T18:28:16.012Z,3.19
2022-12-25T18:30:48.516Z,3.17
2022-12-25T18:33:20.865Z,3.23
2022-12-25T18:35:57.079Z,3.01
2022-12-25T18:38:29.639Z,2.92
2022-12-25T18:41:04.760Z,2.93
2022-12-25T18:43:53.664Z,2.75
2022-12-25T18:46:28.347Z,2.74
2022-12-25T18:49:00.855Z,2.72
2022-12-25T18:51:37.090Z,2.76
2022-12-25T18:54:09.710Z,2.84
2022-12-25T18:56:42.062Z,2.87
2022-12-25T18:59:15.701Z,2.85
2022-12-25T19:01:48.168Z,2.76
2022-12-25T19:04:20.770Z,2.68
2022-12-25T19:06:53.055Z,2.76
2022-12-25T19:09:25.429Z,2.77
2022-12-25T19:11:58.278Z,2.72
2022-12-25T19:14:32.523Z,2.76
2022-12-25T19:17:20.548Z,2.73
2022-12-25T19:19:52.879Z,2.76
2022-12-25T19:22:26.253Z,2.80
2022-12-25T19:24:58.620Z,2.74
2022-12-25T19:27:30.961Z,2.76
2022-12-25T19:30:05.077Z,2.70
2022-12-25T19:32:37.454Z,2.63
2022-12-25T19:35:09.868Z,2.54
2022-12-25T19:37:42.127Z,2.58
2022-12-25T19:40:14.746Z,2.55
2022-12-25T19:42:47.035Z,2.58
2022-12-25T19:45:20.885Z,2.60
2022-12-25T19:47:53.397Z,2.51
2022-12-25T19:50:27.952Z,2.53
2022-12-25T19:53:00.292Z,2.37
2022-12-25T19:55:32.858Z,2.32
2022-12-25T19:58:05.155Z,2.32
2022-12-25T20:00:39.633Z,2.25
2022-12-25T20:03:12.020Z,2.02
2022-12-25T20:05:44.559Z,1.94
2022-12-25T20:08:16.832Z,1.93
2022-12-25T20:10:49.497Z,1.96
2022-12-25T20:13:22.189Z,2.04
2022-12-25T20:16:00.947Z,1.98
2022-12-25T20:18:33.292Z,2.02
2022-12-25T20:21:08.946Z,2.05
2022-12-25T20:23:41.826Z,2.00
2022-12-25T20:26:15.551Z,2.09
2022-12-25T20:28:48.244Z,2.07
2022-12-25T20:31:23.357Z,1.96
2022-12-25T20:33:56.972Z,2.09
2022-12-25T20:36:34.674Z,2.11
2022-12-25T20:39:11.577Z,2.09
2022-12-25T20:41:44.441Z,2.10
2022-12-25T20:44:16.918Z,2.06
2022-12-25T20:46:49.965Z,2.03
2022-12-25T20:49:22.273Z,2.06
2022-12-25T20:51:57.394Z,2.03
2022-12-25T20:54:34.318Z,2.05
2022-12-25T20:57:07.935Z,2.06
2022-12-25T20:59:42.725Z,2.05
2022-12-25T21:02:33.999Z,2.02
2022-12-25T21:05:11.032Z,1.98
2022-12-25T21:07:43.332Z,1.96
2022-12-25T21:10:15.930Z,1.93
2022-12-25T21:12:48.359Z,1.92
2022-12-25T21:15:20.731Z,1.88
2022-12-25T21:17:53.802Z,1.88
2022-12-25T21:20:26.211Z,1.85
2022-12-25T21:22:58.605Z,1.83
2022-12-25T21:25:30.944Z,1.81
2022-12-25T21:28:03.328Z,1.57
2022-12-25T21:30:35.722Z,1.53
2022-12-25T21:33:29.226Z,1.56
2022-12-25T21:36:06.545Z,1.57
2022-12-25T21:38:39.138Z,1.50
2022-12-25T21:41:13.635Z,1.62
2022-12-25T21:43:46.230Z,1.59
2022-12-25T21:46:18.866Z,1.60
2022-12-25T21:48:52.379Z,1.57
2022-12-25T21:51:45.835Z,1.60
2022-12-25T21:54:19.850Z,1.54
2022-12-25T21:56:52.159Z,1.56
2022-12-25T21:59:24.629Z,1.51
2022-12-25T22:01:58.584Z,1.51
2022-12-25T22:04:31.662Z,1.53
2022-12-25T22:07:19.137Z,1.51
2022-12-25T22:09:51.649Z,1.49
2022-12-25T22:12:41.986Z,1.47
2022-12-25T22:15:14.268Z,1.46
2022-12-25T22:18:05.235Z,1.45
2022-12-25T22:20:38.469Z,1.44
2022-12-25T22:23:10.727Z,1.44
2022-12-25T22:25:43.079Z,1.46
2022-12-25T22:28:15.394Z,1.44
2022-12-25T22:30:47.807Z,1.44
2022-12-25T22:33:21.639Z,1.39
2022-12-25T22:36:01.769Z,1.38
2022-12-25T22:38:34.323Z,1.30
2022-12-25T22:41:07.083Z,1.29
2022-12-25T22:44:15.233Z,1.33
2022-12-25T22:46:32.075Z,1.32
2022-12-25T22:49:04.432Z,1.29
2022-12-25T22:51:37.514Z,1.26
2022-12-25T22:54:12.355Z,1.29
2022-12-25T22:56:46.364Z,1.31
2022-12-25T22:59:20.487Z,1.28
2022-12-25T23:01:53.126Z,1.30
2022-12-25T23:04:25.548Z,1.28
2022-12-25T23:06:58.669Z,1.24
2022-12-25T23:09:31.095Z,1.25
2022-12-25T23:12:04.044Z,1.28
2022-12-25T23:14:38.827Z,1.28
2022-12-25T23:17:27.430Z,1.29
2022-12-25T23:20:18.843Z,1.26
2022-12-25T23:23:10.328Z,1.23
2022-12-25T23:26:01.321Z,1.18
2022-12-25T23:28:52.194Z,1.18
2022-12-25T23:31:28.668Z,1.13
2022-12-25T23:34:01.409Z,1.12
2022-12-25T23:36:34.279Z,1.10
2022-12-25T23:39:10.480Z,1.11
2022-12-25T23:41:43.675Z,1.12
2022-12-25T23:44:16.293Z,1.14
2022-12-25T23:46:53.302Z,1.14
2022-12-25T23:49:26.939Z,0.98
2022-12-25T23:51:59.280Z,1.08
2022-12-25T23:54:33.443Z,1.00
2022-12-25T23:57:05.761Z,0.96
2022-12-25T23:59:38.232Z,0.90
